createdAt,value
2023-04-02T00:01:52.308Z,8.27
2023-04-02T00:04:23.505Z,9.88
2023-04-02T00:06:54.478Z,9.02
2023-04-02T00:09:32.584Z,8.65
2023-04-02T00:12:15.212Z,8.90
2023-04-02T00:14:47.533Z,10.55
2023-04-02T00:17:14.769Z,8.05
2023-04-02T00:19:53.135Z,8.45
2023-04-02T00:22:31.649Z,8.70
2023-04-02T00:25:01.394Z,8.75
2023-04-02T00:27:30.505Z,8.73
2023-04-02T00:29:58.738Z,10.23
2023-04-02T00:32:28.587Z,6.93
2023-04-02T00:34:56.330Z,10.32
2023-04-02T00:37:27.996Z,11.38
2023-04-02T00:40:10.374Z,11.93
2023-04-02T00:42:40.239Z,10.68
2023-04-02T00:45:18.682Z,8.25
2023-04-02T00:47:45.605Z,10.73
2023-04-02T00:50:12.217Z,10.45
2023-04-02T00:52:41.399Z,10.65
2023-04-02T00:55:22.758Z,11.50
2023-04-02T00:57:51.036Z,10.32
2023-04-02T01:00:34.734Z,10.38
2023-04-02T01:03:36.552Z,9.40
2023-04-02T01:06:10.967Z,9.75
2023-04-02T01:09:11.344Z,9.98
2023-04-02T01:12:08.106Z,9.95
2023-04-02T01:14:48.522Z,9.68
2023-04-02T01:17:40.145Z,10.30
2023-04-02T01:20:37.342Z,10.32
2023-04-02T01:23:17.015Z,9.40
2023-04-02T01:25:52.292Z,7.97
2023-04-02T01:28:25.248Z,9.80
2023-04-02T01:30:55.279Z,11.13
2023-04-02T01:33:24.326Z,9.68
2023-04-02T01:36:02.893Z,8.93
2023-04-02T01:39:12.346Z,8.98
2023-04-02T01:42:00.836Z,8.68
2023-04-02T01:44:37.571Z,9.27
2023-04-02T01:47:10.040Z,8.80
2023-04-02T01:49:36.773Z,6.28
2023-04-02T01:52:03.602Z,9.15
2023-04-02T01:54:31.494Z,9.63
2023-04-02T01:56:58.475Z,8.68
2023-04-02T01:59:26.402Z,8.85
2023-04-02T02:02:11.757Z,8.18
2023-04-02T02:04:39.760Z,9.35
2023-04-02T02:07:14.348Z,9.30
2023-04-02T02:09:42.279Z,10.45
2023-04-02T02:12:14.667Z,9.38
2023-04-02T02:14:47.764Z,7.80
2023-04-02T02:17:17.931Z,8.07
2023-04-02T02:19:52.402Z,8.50
2023-04-02T02:22:35.064Z,7.53
2023-04-02T02:25:11.165Z,8.73
2023-04-02T02:27:46.013Z,9.05
2023-04-02T02:30:25.284Z,9.30
2023-04-02T02:33:15.340Z,7.93
2023-04-02T02:36:06.698Z,7.65
2023-04-02T02:38:45.500Z,7.53
2023-04-02T02:41:26.231Z,7.95
2023-04-02T02:44:11.332Z,9.02
2023-04-02T02:47:01.484Z,7.68
2023-04-02T02:49:35.367Z,7.32
2023-04-02T02:52:15.315Z,7.38
2023-04-02T02:54:47.933Z,6.57
2023-04-02T02:57:21.640Z,8.40
2023-04-02T02:59:50.003Z,7.65
2023-04-02T03:02:18.281Z,7.95
2023-04-02T03:04:52.937Z,6.07
2023-04-02T03:07:21.991Z,8.75
2023-04-02T03:10:07.281Z,8.35
2023-04-02T03:13:00.770Z,8.60
2023-04-02T03:15:52.154Z,7.35
2023-04-02T03:18:34.792Z,8.57
2023-04-02T03:21:30.953Z,7.78
2023-04-02T03:24:02.007Z,8.20
2023-04-02T03:26:34.932Z,7.60
2023-04-02T03:29:04.871Z,8.70
2023-04-02T03:31:48.322Z,8.48
2023-04-02T03:34:37.315Z,9.20
2023-04-02T03:37:17.010Z,9.73
2023-04-02T03:40:04.534Z,7.37
2023-04-02T03:42:43.251Z,8.90
2023-04-02T03:45:23.921Z,8.15
2023-04-02T03:48:10.432Z,9.35
2023-04-02T03:50:56.750Z,8.55
2023-04-02T03:53:25.296Z,7.10
2023-04-02T03:55:53.046Z,6.47
2023-04-02T03:58:33.611Z,8.20
2023-04-02T04:04:06.741Z,7.18
2023-04-02T04:06:34.890Z,7.88
2023-04-02T04:09:36.308Z,6.60
2023-04-02T04:12:24.436Z,7.30
2023-04-02T04:15:13.763Z,7.47
2023-04-02T04:18:02.479Z,7.20
2023-04-02T04:20:50.363Z,8.23
2023-04-02T04:23:30.368Z,8.40
2023-04-02T04:26:09.729Z,8.20
2023-04-02T04:29:09.716Z,6.55
2023-04-02T04:31:49.717Z,5.50
2023-04-02T04:34:26.858Z,7.78
2023-04-02T04:37:01.641Z,7.63
2023-04-02T04:39:45.541Z,7.35
2023-04-02T04:42:20.402Z,6.13
2023-04-02T04:45:00.099Z,7.22
2023-04-02T04:47:33.516Z,6.70
2023-04-02T04:50:07.430Z,6.40
2023-04-02T04:52:38.513Z,5.82
2023-04-02T04:55:35.012Z,6.82
2023-04-02T04:58:22.050Z,5.85
2023-04-02T05:01:13.083Z,5.97
2023-04-02T05:03:57.556Z,5.28
2023-04-02T05:06:24.701Z,5.50
2023-04-02T05:08:55.909Z,5.05
2023-04-02T05:11:26.581Z,5.22
2023-04-02T05:13:59.210Z,4.32
2023-04-02T05:16:48.846Z,4.18
2023-04-02T05:19:42.174Z,3.50
2023-04-02T05:22:27.155Z,3.67
2023-04-02T05:25:10.399Z,3.22
2023-04-02T05:27:47.552Z,3.88
2023-04-02T05:30:23.356Z,2.65
2023-04-02T05:33:07.872Z,2.17
2023-04-02T05:35:41.036Z,3.92
2023-04-02T05:38:08.281Z,3.15
2023-04-02T05:40:39.945Z,3.17
2023-04-02T05:43:15.542Z,3.40
2023-04-02T05:45:46.649Z,3.63
2023-04-02T05:48:25.413Z,3.00
2023-04-02T05:50:55.903Z,2.80
2023-04-02T05:56:03.185Z,3.63
2023-04-02T05:58:55.704Z,3.28
2023-04-02T06:01:25.516Z,3.38
2023-04-02T06:04:17.486Z,3.45
2023-04-02T06:06:49.646Z,4.03
2023-04-02T06:09:39.440Z,3.80
2023-04-02T06:12:21.469Z,3.88
2023-04-02T06:14:48.341Z,3.42
2023-04-02T06:17:20.905Z,3.88
2023-04-02T06:19:48.195Z,3.80
2023-04-02T06:22:24.363Z,2.78
2023-04-02T06:25:06.473Z,4.13
2023-04-02T06:27:34.143Z,3.92
2023-04-02T06:30:05.610Z,4.75
2023-04-02T06:32:32.578Z,4.03
2023-04-02T06:34:59.646Z,5.75
2023-04-02T06:37:37.718Z,5.30
2023-04-02T06:40:17.408Z,6.03
2023-04-02T06:42:46.076Z,3.20
2023-04-02T06:45:29.856Z,7.22
2023-04-02T06:48:00.101Z,5.60
2023-04-02T06:50:42.988Z,6.93
2023-04-02T06:53:24.558Z,6.15
2023-04-02T06:56:00.800Z,6.47
2023-04-02T06:58:27.745Z,7.30
2023-04-02T07:00:54.974Z,6.20
2023-04-02T07:03:33.006Z,6.13
2023-04-02T07:06:02.168Z,5.00
2023-04-02T07:08:28.896Z,5.82
2023-04-02T07:10:56.323Z,4.82
2023-04-02T07:13:24.554Z,3.92
2023-04-02T07:15:53.348Z,5.03
2023-04-02T07:18:32.198Z,6.53
2023-04-02T07:20:59.361Z,6.57
2023-04-02T07:23:26.604Z,5.63
2023-04-02T07:25:55.047Z,5.43
2023-04-02T07:28:22.921Z,7.68
2023-04-02T07:30:50.512Z,5.63
2023-04-02T07:33:19.692Z,12.93
2023-04-02T07:35:47.384Z,5.95
2023-04-02T07:38:14.426Z,5.20
2023-04-02T07:40:41.308Z,5.07
2023-04-02T07:43:08.030Z,6.13
2023-04-02T07:45:36.015Z,6.03
2023-04-02T07:48:07.525Z,5.10
2023-04-02T07:50:35.510Z,4.53
2023-04-02T07:53:02.723Z,4.53
2023-04-02T07:55:29.597Z,4.95
2023-04-02T07:57:58.489Z,4.85
2023-04-02T08:00:27.088Z,4.93
2023-04-02T08:02:54.956Z,4.78
2023-04-02T08:05:22.508Z,4.95
2023-04-02T08:07:56.776Z,4.72
2023-04-02T08:10:24.776Z,5.05
2023-04-02T08:12:51.674Z,4.90
2023-04-02T08:15:18.644Z,4.53
2023-04-02T08:17:46.216Z,4.93
2023-04-02T08:20:22.125Z,3.95
2023-04-02T08:22:50.103Z,4.05
2023-04-02T08:25:17.870Z,4.60
2023-04-02T08:27:48.105Z,4.38
2023-04-02T08:30:16.093Z,5.15
2023-04-02T08:32:43.270Z,6.28
2023-04-02T08:35:12.367Z,5.97
2023-04-02T08:37:39.413Z,4.53
2023-04-02T08:40:07.455Z,5.78
2023-04-02T08:42:39.676Z,6.82
2023-04-02T08:45:37.760Z,6.68
2023-04-02T08:48:05.484Z,8.00
2023-04-02T08:50:35.550Z,7.80
2023-04-02T08:53:05.189Z,7.55
2023-04-02T08:55:59.398Z,8.35
2023-04-02T08:58:43.327Z,6.80
2023-04-02T09:01:35.053Z,8.02
2023-04-02T09:04:05.586Z,8.60
2023-04-02T09:06:34.692Z,7.95
2023-04-02T09:09:01.696Z,8.20
2023-04-02T09:11:41.624Z,5.78
2023-04-02T09:16:51.946Z,6.03
2023-04-02T09:19:42.181Z,5.05
2023-04-02T09:22:21.849Z,5.43
2023-04-02T09:24:55.867Z,5.90
2023-04-02T09:27:26.964Z,4.95
2023-04-02T09:30:03.810Z,3.95
2023-04-02T09:32:55.771Z,3.45
2023-04-02T09:35:28.815Z,3.03
2023-04-02T09:38:32.714Z,3.30
2023-04-02T09:41:17.905Z,3.75
2023-04-02T09:43:44.697Z,3.17
2023-04-02T09:46:15.453Z,2.90
2023-04-02T09:48:58.381Z,3.28
2023-04-02T09:51:36.667Z,3.40
2023-04-02T09:54:03.454Z,3.15
2023-04-02T09:56:37.842Z,2.83
2023-04-02T09:59:13.704Z,3.15
2023-04-02T10:02:08.201Z,2.97
2023-04-02T10:04:38.743Z,2.85
2023-04-02T10:07:06.914Z,2.67
2023-04-02T10:09:36.427Z,3.30
2023-04-02T10:12:07.339Z,2.78
2023-04-02T10:14:44.692Z,2.78
2023-04-02T10:17:25.030Z,2.17
2023-04-02T10:20:02.685Z,2.25
2023-04-02T10:22:30.129Z,3.00
2023-04-02T10:24:59.049Z,3.38
2023-04-02T10:27:39.691Z,3.00
2023-04-02T10:33:01.679Z,3.30
2023-04-02T10:35:38.566Z,3.05
2023-04-02T10:38:23.396Z,3.53
2023-04-02T10:41:00.796Z,3.17
2023-04-02T10:43:49.267Z,2.53
2023-04-02T10:46:30.229Z,3.85
2023-04-02T10:49:08.717Z,3.03
2023-04-02T10:51:54.589Z,3.80
2023-04-02T10:54:33.683Z,3.00
2023-04-02T10:57:23.539Z,3.22
2023-04-02T11:00:17.720Z,3.35
2023-04-02T11:02:59.365Z,2.95
2023-04-02T11:05:51.346Z,3.47
2023-04-02T11:08:29.564Z,3.30
2023-04-02T11:11:05.448Z,2.55
2023-04-02T11:13:46.752Z,2.90
2023-04-02T11:16:17.178Z,3.40
2023-04-02T11:21:54.992Z,3.17
2023-04-02T11:24:32.635Z,2.22
2023-04-02T11:27:11.612Z,3.50
2023-04-02T11:29:45.395Z,2.78
2023-04-02T11:32:21.153Z,3.10
2023-04-02T11:34:56.409Z,2.28
2023-04-02T11:37:39.671Z,2.40
2023-04-02T11:40:13.743Z,3.05
2023-04-02T11:42:51.246Z,2.30
2023-04-02T11:45:21.378Z,2.70
2023-04-02T11:48:08.959Z,3.08
2023-04-02T11:50:45.368Z,2.97
2023-04-02T11:53:12.172Z,2.70
2023-04-02T11:55:47.218Z,2.17
2023-04-02T11:58:49.953Z,2.95
2023-04-02T12:01:54.488Z,2.90
2023-04-02T12:05:03.492Z,3.33
2023-04-02T12:08:05.164Z,2.08
2023-04-02T12:10:54.588Z,2.50
2023-04-02T12:13:41.345Z,2.83
2023-04-02T12:16:10.628Z,3.10
2023-04-02T12:18:44.652Z,3.10
2023-04-02T12:21:18.040Z,3.00
2023-04-02T12:23:48.814Z,2.67
2023-04-02T12:26:42.303Z,2.60
2023-04-02T12:29:28.141Z,3.05
2023-04-02T12:31:57.141Z,3.50
2023-04-02T12:34:26.962Z,3.03
2023-04-02T12:37:05.376Z,2.95
2023-04-02T12:39:33.661Z,2.85
2023-04-02T12:42:00.440Z,3.17
2023-04-02T12:44:29.716Z,3.05
2023-04-02T12:46:58.106Z,3.30
2023-04-02T12:49:40.228Z,2.63
2023-04-02T12:52:11.151Z,3.13
2023-04-02T12:54:46.157Z,3.00
2023-04-02T12:57:29.350Z,3.13
2023-04-02T13:00:21.068Z,2.92
2023-04-02T13:03:18.998Z,3.03
2023-04-02T13:05:53.513Z,2.95
2023-04-02T13:08:29.486Z,2.92
2023-04-02T13:11:04.875Z,2.83
2023-04-02T13:13:40.332Z,1.80
2023-04-02T13:16:12.928Z,2.60
2023-04-02T13:18:40.389Z,2.65
2023-04-02T13:21:28.440Z,2.60
2023-04-02T13:23:55.647Z,2.45
2023-04-02T13:26:27.924Z,2.50
2023-04-02T13:29:02.361Z,2.47
2023-04-02T13:31:30.749Z,2.70
2023-04-02T13:33:58.786Z,2.50
2023-04-02T13:36:26.571Z,2.55
2023-04-02T13:38:53.316Z,2.70
2023-04-02T13:41:29.056Z,2.83
2023-04-02T13:43:58.276Z,2.25
2023-04-02T13:46:30.629Z,2.67
2023-04-02T13:48:58.801Z,2.45
2023-04-02T13:51:35.238Z,2.55
2023-04-02T13:54:02.213Z,2.70
2023-04-02T13:56:29.144Z,2.50
2023-04-02T13:58:56.031Z,2.60
2023-04-02T14:01:25.358Z,2.15
2023-04-02T14:03:54.531Z,2.30
2023-04-02T14:06:52.440Z,2.22
2023-04-02T14:09:24.240Z,1.55
2023-04-02T14:11:56.219Z,2.17
2023-04-02T14:14:26.025Z,2.70
2023-04-02T14:17:18.522Z,2.05
2023-04-02T14:20:07.233Z,2.45
2023-04-02T14:22:52.899Z,1.95
2023-04-02T14:25:59.274Z,2.38
2023-04-02T14:29:07.932Z,2.05
2023-04-02T14:31:41.458Z,2.20
2023-04-02T14:35:04.886Z,1.90
2023-04-02T14:37:45.700Z,1.70
2023-04-02T14:40:31.621Z,2.20
2023-04-02T14:43:11.406Z,2.30
2023-04-02T14:45:46.290Z,1.90
2023-04-02T14:49:00.055Z,2.30
2023-04-02T14:51:41.676Z,1.95
2023-04-02T14:54:21.238Z,2.58
2023-04-02T14:56:52.922Z,1.95
2023-04-02T14:59:36.765Z,1.75
2023-04-02T15:02:13.329Z,2.10
2023-04-02T15:04:56.739Z,2.50
2023-04-02T15:07:28.712Z,2.10
2023-04-02T15:10:17.058Z,2.00
2023-04-02T15:12:46.415Z,1.90
2023-04-02T15:15:36.918Z,2.70
2023-04-02T15:18:09.564Z,2.22
2023-04-02T15:20:59.723Z,2.08
2023-04-02T15:23:38.300Z,1.90
2023-04-02T15:26:26.328Z,1.30
2023-04-02T15:29:28.770Z,1.50
2023-04-02T15:32:07.448Z,2.08
2023-04-02T15:34:45.924Z,2.33
2023-04-02T15:37:18.271Z,2.50
2023-04-02T15:40:17.217Z,2.10
2023-04-02T15:42:58.148Z,2.20
2023-04-02T15:46:01.087Z,1.90
2023-04-02T15:48:42.633Z,1.85
2023-04-02T15:51:48.428Z,2.00
2023-04-02T15:54:34.638Z,1.90
2023-04-02T15:57:29.168Z,2.08
2023-04-02T16:00:11.275Z,2.17
2023-04-02T16:03:10.462Z,2.42
2023-04-02T16:06:00.722Z,2.13
2023-04-02T16:08:44.952Z,2.05
2023-04-02T16:11:15.326Z,1.90
2023-04-02T16:13:43.241Z,1.90
2023-04-02T16:16:13.704Z,2.03
2023-04-02T16:19:22.799Z,1.75
2023-04-02T16:22:07.027Z,1.88
2023-04-02T16:24:33.853Z,2.75
2023-04-02T16:27:20.299Z,2.30
2023-04-02T16:30:00.741Z,2.20
2023-04-02T16:32:35.156Z,2.67
2023-04-02T16:35:39.778Z,1.98
2023-04-02T16:38:22.865Z,1.92
2023-04-02T16:41:23.554Z,2.60
2023-04-02T16:47:00.873Z,2.10
2023-04-02T16:49:50.979Z,2.03
2023-04-02T16:53:03.235Z,2.33
2023-04-02T16:55:50.871Z,2.25
2023-04-02T16:58:34.591Z,1.88
2023-04-02T17:01:05.421Z,2.22
2023-04-02T17:03:44.506Z,2.40
2023-04-02T17:06:41.441Z,2.45
2023-04-02T17:09:14.385Z,2.38
2023-04-02T17:11:48.837Z,2.30
2023-04-02T17:14:23.879Z,2.63
2023-04-02T17:16:54.633Z,3.38
2023-04-02T17:19:23.857Z,2.72
2023-04-02T17:21:56.521Z,2.50
2023-04-02T17:24:25.583Z,2.22
2023-04-02T17:26:58.467Z,2.35
2023-04-02T17:29:46.627Z,1.90
2023-04-02T17:32:36.913Z,2.00
2023-04-02T17:35:18.775Z,2.00
2023-04-02T17:38:07.517Z,2.28
2023-04-02T17:40:48.061Z,2.40
2023-04-02T17:46:18.139Z,2.10
2023-04-02T17:48:57.385Z,1.98
2023-04-02T17:51:41.110Z,2.63
2023-04-02T17:54:13.753Z,2.40
2023-04-02T17:57:18.093Z,2.10
2023-04-02T18:00:22.346Z,2.42
2023-04-02T18:03:19.484Z,2.30
2023-04-02T18:06:00.550Z,2.50
2023-04-02T18:08:33.457Z,2.00
2023-04-02T18:11:21.951Z,2.40
2023-04-02T18:14:00.567Z,1.70
2023-04-02T18:16:43.252Z,1.95
2023-04-02T18:19:17.255Z,2.13
2023-04-02T18:22:05.801Z,1.88
2023-04-02T18:25:03.286Z,2.25
2023-04-02T18:27:40.223Z,2.00
2023-04-02T18:30:29.482Z,2.10
2023-04-02T18:33:38.351Z,2.42
2023-04-02T18:36:22.696Z,2.13
2023-04-02T18:39:00.056Z,2.30
2023-04-02T18:42:04.571Z,2.25
2023-04-02T18:45:07.804Z,2.65
2023-04-02T18:47:53.321Z,2.80
2023-04-02T18:50:30.118Z,2.45
2023-04-02T18:52:57.108Z,2.83
2023-04-02T18:55:32.323Z,2.55
2023-04-02T18:58:10.812Z,2.70
2023-04-02T19:00:42.942Z,2.63
2023-04-02T19:03:21.380Z,2.13
2023-04-02T19:06:03.211Z,2.22
2023-04-02T19:08:41.950Z,2.13
2023-04-02T19:11:16.408Z,2.33
2023-04-02T19:13:45.079Z,1.60
2023-04-02T19:16:34.796Z,2.17
2023-04-02T19:19:14.549Z,8.83
2023-04-02T19:21:51.514Z,4.45
2023-04-02T19:24:34.878Z,3.25
2023-04-02T19:27:12.515Z,4.18
2023-04-02T19:29:48.794Z,3.33
2023-04-02T19:33:03.405Z,3.70
2023-04-02T19:35:42.855Z,3.83
2023-04-02T19:38:38.867Z,3.67
2023-04-02T19:41:31.433Z,3.13
2023-04-02T19:43:58.487Z,2.40
2023-04-02T19:46:26.619Z,2.33
2023-04-02T19:49:22.775Z,2.17
2023-04-02T19:51:50.742Z,1.70
2023-04-02T19:54:18.498Z,1.92
2023-04-02T19:56:45.560Z,2.08
2023-04-02T20:01:43.270Z,1.85
2023-04-02T20:04:10.040Z,2.22
2023-04-02T20:06:37.529Z,1.83
2023-04-02T20:09:04.268Z,2.10
2023-04-02T20:11:31.142Z,2.15
2023-04-02T20:13:57.991Z,1.80
2023-04-02T20:16:24.790Z,1.73
2023-04-02T20:18:51.675Z,1.70
2023-04-02T20:21:18.532Z,1.90
2023-04-02T20:23:46.608Z,1.60
2023-04-02T20:26:13.553Z,1.90
2023-04-02T20:28:40.406Z,1.75
2023-04-02T20:31:14.327Z,1.40
2023-04-02T20:33:42.150Z,1.30
2023-04-02T20:36:11.763Z,1.30
2023-04-02T20:38:38.619Z,1.52
2023-04-02T20:41:07.646Z,1.20
2023-04-02T20:43:36.021Z,1.60
2023-04-02T20:46:05.668Z,1.88
2023-04-02T20:48:33.921Z,1.50
2023-04-02T20:51:02.804Z,1.50
2023-04-02T20:53:31.025Z,1.40
2023-04-02T20:56:14.388Z,1.67
2023-04-02T20:58:42.733Z,1.48
2023-04-02T21:01:29.692Z,1.50
2023-04-02T21:03:59.315Z,1.30
2023-04-02T21:06:28.559Z,1.50
2023-04-02T21:08:55.370Z,1.05
2023-04-02T21:11:22.493Z,1.40
2023-04-02T21:13:49.918Z,1.40
2023-04-02T21:16:22.208Z,1.83
2023-04-02T21:18:51.851Z,1.30
2023-04-02T21:21:20.337Z,1.27
2023-04-02T21:23:47.339Z,1.50
2023-04-02T21:26:16.509Z,1.70
2023-04-02T21:28:45.227Z,1.70
2023-04-02T21:31:13.737Z,1.92
2023-04-02T21:33:43.113Z,2.00
2023-04-02T21:36:21.764Z,1.70
2023-04-02T21:38:54.860Z,1.90
2023-04-02T21:41:24.587Z,1.98
2023-04-02T21:43:51.442Z,1.65
2023-04-02T21:46:21.111Z,1.40
2023-04-02T21:48:49.196Z,1.80
2023-04-02T21:51:21.740Z,1.30
2023-04-02T21:53:48.548Z,1.23
2023-04-02T21:56:21.059Z,1.33
2023-04-02T21:58:48.798Z,1.52
2023-04-02T22:01:26.718Z,1.55
2023-04-02T22:03:56.640Z,1.50
2023-04-02T22:06:25.466Z,1.50
2023-04-02T22:08:55.113Z,1.40
2023-04-02T22:11:24.024Z,1.40
2023-04-02T22:13:51.270Z,1.40
2023-04-02T22:16:21.125Z,1.48
2023-04-02T22:18:49.354Z,1.60
2023-04-02T22:21:17.027Z,1.50
2023-04-02T22:23:44.529Z,1.48
2023-04-02T22:26:12.329Z,2.00
2023-04-02T22:28:39.170Z,2.35
2023-04-02T22:31:12.862Z,1.50
2023-04-02T22:33:40.416Z,2.55
2023-04-02T22:36:07.341Z,2.00
2023-04-02T22:38:34.763Z,2.00
2023-04-02T22:41:09.488Z,1.67
2023-04-02T22:43:37.950Z,1.70
2023-04-02T22:46:06.503Z,1.92
2023-04-02T22:48:33.948Z,1.60
2023-04-02T22:51:01.333Z,1.90
2023-04-02T22:53:28.372Z,2.13
2023-04-02T22:55:55.041Z,2.10
2023-04-02T22:58:22.617Z,1.70
2023-04-02T23:00:49.347Z,1.92
2023-04-02T23:03:16.219Z,1.80
2023-04-02T23:05:42.956Z,1.65
2023-04-02T23:08:09.668Z,2.03
2023-04-02T23:10:36.715Z,1.73
2023-04-02T23:13:03.859Z,2.05
2023-04-02T23:15:30.540Z,1.65
2023-04-02T23:17:57.270Z,1.88
2023-04-02T23:20:23.965Z,1.98
2023-04-02T23:22:51.605Z,1.77
2023-04-02T23:25:18.261Z,2.22
2023-04-02T23:27:45.009Z,2.10
2023-04-02T23:30:17.891Z,1.83
2023-04-02T23:32:44.549Z,2.08
2023-04-02T23:35:11.431Z,1.92
2023-04-02T23:37:38.100Z,2.33
2023-04-02T23:40:05.375Z,2.20
2023-04-02T23:42:32.184Z,1.83
2023-04-02T23:44:58.834Z,1.95
2023-04-02T23:47:25.530Z,2.15
2023-04-02T23:49:52.232Z,2.00
2023-04-02T23:52:19.040Z,1.90
2023-04-02T23:54:45.862Z,1.85
2023-04-02T23:57:12.568Z,2.08
2023-04-02T23:59:40.280Z,2.00
